sensor_id;sensor_type;location;lat;lon;timestamp;pressure;altitude;pressure_sealevel;temperature;humidity
37610;BME280;23457;51.966;8.230;2023-06-22T00:01:19;101190.06;;;21.08;83.67
37610;BME280;23457;51.966;8.230;2023-06-22T00:03:46;101191.66;;;21.19;82.53
37610;BME280;23457;51.966;8.230;2023-06-22T00:06:13;101174.25;;;21.05;81.97
37610;BME280;23457;51.966;8.230;2023-06-22T00:08:40;101188.28;;;21.09;82.17
37610;BME280;23457;51.966;8.230;2023-06-22T00:11:07;101181.09;;;21.19;82.24
37610;BME280;23457;51.966;8.230;2023-06-22T00:13:33;101174.25;;;21.05;82.09
37610;BME280;23457;51.966;8.230;2023-06-22T00:16:00;101172.75;;;20.92;82.46
37610;BME280;23457;51.966;8.230;2023-06-22T00:18:26;101175.50;;;20.88;82.52
37610;BME280;23457;51.966;8.230;2023-06-22T00:20:55;101159.91;;;20.74;83.13
37610;BME280;23457;51.966;8.230;2023-06-22T00:23:25;101161.94;;;20.60;83.92
37610;BME280;23457;51.966;8.230;2023-06-22T00:25:52;101162.00;;;20.55;84.10
37610;BME280;23457;51.966;8.230;2023-06-22T00:28:19;101158.59;;;20.52;84.22
37610;BME280;23457;51.966;8.230;2023-06-22T00:30:46;101150.44;;;20.64;83.88
37610;BME280;23457;51.966;8.230;2023-06-22T00:33:14;101150.34;;;20.67;83.50
37610;BME280;23457;51.966;8.230;2023-06-22T00:35:41;101153.66;;;20.78;82.89
37610;BME280;23457;51.966;8.230;2023-06-22T00:38:08;101156.06;;;20.90;82.43
37610;BME280;23457;51.966;8.230;2023-06-22T00:40:35;101138.69;;;20.79;82.59
37610;BME280;23457;51.966;8.230;2023-06-22T00:43:03;101130.91;;;20.71;82.89
37610;BME280;23457;51.966;8.230;2023-06-22T00:45:30;101132.66;;;20.72;83.18
37610;BME280;23457;51.966;8.230;2023-06-22T00:47:57;101136.94;;;20.78;83.24
37610;BME280;23457;51.966;8.230;2023-06-22T00:50:26;101142.19;;;20.79;82.97
37610;BME280;23457;51.966;8.230;2023-06-22T00:52:56;101141.97;;;20.90;82.60
37610;BME280;23457;51.966;8.230;2023-06-22T00:55:25;101141.25;;;20.83;82.59
37610;BME280;23457;51.966;8.230;2023-06-22T00:57:53;101138.75;;;20.77;82.93
37610;BME280;23457;51.966;8.230;2023-06-22T01:00:23;101134.47;;;20.70;83.43
37610;BME280;23457;51.966;8.230;2023-06-22T01:02:52;101136.19;;;20.71;83.89
37610;BME280;23457;51.966;8.230;2023-06-22T01:05:22;101139.78;;;20.67;84.38
37610;BME280;23457;51.966;8.230;2023-06-22T01:12:59;101130.47;;;20.94;83.94
37610;BME280;23457;51.966;8.230;2023-06-22T01:18:30;101122.53;;;20.94;84.45
37610;BME280;23457;51.966;8.230;2023-06-22T01:21:00;101128.22;;;20.74;85.76
37610;BME280;23457;51.966;8.230;2023-06-22T01:26:35;101129.22;;;20.67;86.88
37610;BME280;23457;51.966;8.230;2023-06-22T01:29:04;101123.31;;;20.53;87.69
37610;BME280;23457;51.966;8.230;2023-06-22T01:31:32;101131.78;;;20.71;87.15
37610;BME280;23457;51.966;8.230;2023-06-22T01:34:03;101130.91;;;20.71;87.30
37610;BME280;23457;51.966;8.230;2023-06-22T01:36:30;101131.09;;;20.62;87.98
37610;BME280;23457;51.966;8.230;2023-06-22T01:38:58;101136.25;;;20.68;87.72
37610;BME280;23457;51.966;8.230;2023-06-22T01:41:26;101137.00;;;20.76;87.56
37610;BME280;23457;51.966;8.230;2023-06-22T01:43:54;101131.66;;;20.78;87.69
37610;BME280;23457;51.966;8.230;2023-06-22T01:46:23;101132.59;;;20.75;88.36
37610;BME280;23457;51.966;8.230;2023-06-22T01:48:50;101141.41;;;20.76;88.87
37610;BME280;23457;51.966;8.230;2023-06-22T01:51:17;101127.47;;;20.67;89.60
37610;BME280;23457;51.966;8.230;2023-06-22T01:53:44;101132.91;;;20.60;90.34
37610;BME280;23457;51.966;8.230;2023-06-22T01:56:10;101133.63;;;20.66;90.25
37610;BME280;23457;51.966;8.230;2023-06-22T01:59:08;101138.84;;;20.71;90.39
37610;BME280;23457;51.966;8.230;2023-06-22T02:01:49;101138.00;;;20.69;90.56
37610;BME280;23457;51.966;8.230;2023-06-22T02:04:28;101144.06;;;20.74;91.44
37610;BME280;23457;51.966;8.230;2023-06-22T02:07:00;101142.13;;;20.84;90.77
37610;BME280;23457;51.966;8.230;2023-06-22T02:09:31;101141.25;;;20.83;90.86
37610;BME280;23457;51.966;8.230;2023-06-22T02:12:00;101139.41;;;20.88;90.38
37610;BME280;23457;51.966;8.230;2023-06-22T02:14:28;101140.34;;;20.84;91.53
37610;BME280;23457;51.966;8.230;2023-06-22T02:16:56;101144.91;;;20.76;91.64
37610;BME280;23457;51.966;8.230;2023-06-22T02:19:27;101137.75;;;20.81;91.77
37610;BME280;23457;51.966;8.230;2023-06-22T02:21:53;101139.34;;;20.90;91.56
37610;BME280;23457;51.966;8.230;2023-06-22T02:24:20;101140.19;;;20.92;91.38
37610;BME280;23457;51.966;8.230;2023-06-22T02:26:49;101141.16;;;20.89;91.17
37610;BME280;23457;51.966;8.230;2023-06-22T02:29:16;101135.09;;;20.83;92.40
37610;BME280;23457;51.966;8.230;2023-06-22T02:31:44;101138.78;;;20.74;93.15
37610;BME280;23457;51.966;8.230;2023-06-22T02:34:11;101144.03;;;20.76;91.74
37610;BME280;23457;51.966;8.230;2023-06-22T02:36:48;101147.31;;;20.88;91.46
37610;BME280;23457;51.966;8.230;2023-06-22T02:39:19;101141.88;;;20.96;91.75
37610;BME280;23457;51.966;8.230;2023-06-22T02:41:46;101138.28;;;21.00;91.96
37610;BME280;23457;51.966;8.230;2023-06-22T02:44:14;101143.44;;;21.06;91.81
37610;BME280;23457;51.966;8.230;2023-06-22T02:46:42;101137.41;;;20.99;92.08
37610;BME280;23457;51.966;8.230;2023-06-22T02:49:09;101145.41;;;20.95;92.53
37610;BME280;23457;51.966;8.230;2023-06-22T02:51:39;101136.53;;;20.99;92.18
37610;BME280;23457;51.966;8.230;2023-06-22T02:54:07;101132.97;;;21.01;92.25
37610;BME280;23457;51.966;8.230;2023-06-22T02:56:34;101143.81;;;20.88;93.20
37610;BME280;23457;51.966;8.230;2023-06-22T02:59:03;101139.31;;;20.91;93.11
37610;BME280;23457;51.966;8.230;2023-06-22T03:01:36;101134.06;;;20.90;93.52
37610;BME280;23457;51.966;8.230;2023-06-22T03:04:16;101132.47;;;20.81;93.56
37610;BME280;23457;51.966;8.230;2023-06-22T03:06:42;101131.53;;;20.85;93.59
37610;BME280;23457;51.966;8.230;2023-06-22T03:09:09;101133.31;;;20.83;93.39
37610;BME280;23457;51.966;8.230;2023-06-22T03:11:36;101135.09;;;20.83;93.81
37610;BME280;23457;51.966;8.230;2023-06-22T03:14:03;101129.34;;;20.61;94.89
37610;BME280;23457;51.966;8.230;2023-06-22T03:16:29;101131.94;;;20.64;94.99
37610;BME280;23457;51.966;8.230;2023-06-22T03:18:57;101122.53;;;20.49;96.20
37610;BME280;23457;51.966;8.230;2023-06-22T03:21:27;101125.19;;;20.49;96.58
37610;BME280;23457;51.966;8.230;2023-06-22T03:23:54;101126.91;;;20.52;96.43
37610;BME280;23457;51.966;8.230;2023-06-22T03:26:21;101123.25;;;20.57;96.49
37610;BME280;23457;51.966;8.230;2023-06-22T03:28:48;101117.09;;;20.57;96.21
37610;BME280;23457;51.966;8.230;2023-06-22T03:31:15;101122.59;;;20.45;97.09
37610;BME280;23457;51.966;8.230;2023-06-22T03:33:41;101107.72;;;20.41;97.30
37610;BME280;23457;51.966;8.230;2023-06-22T03:36:08;101115.59;;;20.44;97.62
37610;BME280;23457;51.966;8.230;2023-06-22T03:38:35;101117.50;;;20.32;98.73
37610;BME280;23457;51.966;8.230;2023-06-22T03:41:02;101115.78;;;20.31;98.65
37610;BME280;23457;51.966;8.230;2023-06-22T03:43:29;101122.66;;;20.42;98.73
37610;BME280;23457;51.966;8.230;2023-06-22T03:45:56;101120.00;;;20.42;98.80
37610;BME280;23457;51.966;8.230;2023-06-22T03:48:23;101125.19;;;20.49;98.55
37610;BME280;23457;51.966;8.230;2023-06-22T03:50:49;101125.41;;;20.35;99.24
37610;BME280;23457;51.966;8.230;2023-06-22T03:53:16;101128.06;;;20.32;100.00
37610;BME280;23457;51.966;8.230;2023-06-22T03:55:50;101123.59;;;20.39;99.53
37610;BME280;23457;51.966;8.230;2023-06-22T03:58:20;101128.06;;;20.35;99.99
37610;BME280;23457;51.966;8.230;2023-06-22T04:00:48;101127.00;;;20.46;99.37
37610;BME280;23457;51.966;8.230;2023-06-22T04:03:15;101121.66;;;20.49;99.32
37610;BME280;23457;51.966;8.230;2023-06-22T04:05:42;101115.41;;;20.53;98.58
37610;BME280;23457;51.966;8.230;2023-06-22T04:08:09;101104.81;;;20.54;98.54
37610;BME280;23457;51.966;8.230;2023-06-22T04:10:36;101111.94;;;20.51;98.72
37610;BME280;23457;51.966;8.230;2023-06-22T04:13:03;101126.09;;;20.47;99.43
37610;BME280;23457;51.966;8.230;2023-06-22T04:15:29;101127.84;;;20.48;99.04
37610;BME280;23457;51.966;8.230;2023-06-22T04:17:56;101131.38;;;20.47;99.15
37610;BME280;23457;51.966;8.230;2023-06-22T04:20:23;101126.09;;;20.47;99.46
37610;BME280;23457;51.966;8.230;2023-06-22T04:22:56;101126.06;;;20.48;99.55
37610;BME280;23457;51.966;8.230;2023-06-22T04:25:23;101128.91;;;20.37;100.00
37610;BME280;23457;51.966;8.230;2023-06-22T04:27:49;101122.78;;;20.32;100.00
37610;BME280;23457;51.966;8.230;2023-06-22T04:30:17;101120.16;;;20.35;100.00
37610;BME280;23457;51.966;8.230;2023-06-22T04:32:44;101118.25;;;20.42;100.00
37610;BME280;23457;51.966;8.230;2023-06-22T04:35:12;101115.72;;;20.36;100.00
37610;BME280;23457;51.966;8.230;2023-06-22T04:37:39;101119.25;;;20.33;100.00
37610;BME280;23457;51.966;8.230;2023-06-22T04:40:06;101117.50;;;20.35;100.00
37610;BME280;23457;51.966;8.230;2023-06-22T04:42:34;101114.91;;;20.31;100.00
37610;BME280;23457;51.966;8.230;2023-06-22T04:45:02;101113.69;;;20.52;100.00
37610;BME280;23457;51.966;8.230;2023-06-22T04:47:29;101109.97;;;20.62;100.00
37610;BME280;23457;51.966;8.230;2023-06-22T04:49:56;101103.41;;;20.83;98.24
37610;BME280;23457;51.966;8.230;2023-06-22T04:52:23;101111.28;;;20.84;98.49
37610;BME280;23457;51.966;8.230;2023-06-22T04:54:51;101110.91;;;21.02;97.14
37610;BME280;23457;51.966;8.230;2023-06-22T04:57:22;101104.50;;;21.14;96.62
37610;BME280;23457;51.966;8.230;2023-06-22T05:00:00;101114.41;;;21.03;97.02
37610;BME280;23457;51.966;8.230;2023-06-22T05:02:39;101108.81;;;21.20;96.08
37610;BME280;23457;51.966;8.230;2023-06-22T05:05:06;101113.91;;;21.29;96.61
37610;BME280;23457;51.966;8.230;2023-06-22T05:07:34;101111.19;;;21.32;95.79
37610;BME280;23457;51.966;8.230;2023-06-22T05:10:02;101112.66;;;21.45;96.05
37610;BME280;23457;51.966;8.230;2023-06-22T05:12:29;101101.19;;;21.46;95.91
37610;BME280;23457;51.966;8.230;2023-06-22T05:14:57;101103.41;;;21.26;96.01
37610;BME280;23457;51.966;8.230;2023-06-22T05:17:24;101098.50;;;21.48;96.08
37610;BME280;23457;51.966;8.230;2023-06-22T05:19:51;101099.16;;;21.57;95.44
37610;BME280;23457;51.966;8.230;2023-06-22T05:22:18;101099.28;;;21.53;95.03
37610;BME280;23457;51.966;8.230;2023-06-22T05:24:45;101099.88;;;21.65;95.20
37610;BME280;23457;51.966;8.230;2023-06-22T05:27:13;101091.28;;;21.54;95.33
37610;BME280;23457;51.966;8.230;2023-06-22T05:29:39;101092.28;;;21.50;96.13
37610;BME280;23457;51.966;8.230;2023-06-22T05:32:06;101099.16;;;21.57;96.03
37610;BME280;23457;51.966;8.230;2023-06-22T05:34:33;101090.38;;;21.55;95.30
37610;BME280;23457;51.966;8.230;2023-06-22T05:37:00;101088.56;;;21.57;95.59
37610;BME280;23457;51.966;8.230;2023-06-22T05:39:27;101092.97;;;21.58;95.86
37610;BME280;23457;51.966;8.230;2023-06-22T05:41:53;101096.84;;;21.80;95.14
37610;BME280;23457;51.966;8.230;2023-06-22T05:44:20;101087.06;;;21.84;94.74
37610;BME280;23457;51.966;8.230;2023-06-22T05:46:47;101092.53;;;21.76;94.42
37610;BME280;23457;51.966;8.230;2023-06-22T05:49:15;101093.22;;;21.85;94.79
37610;BME280;23457;51.966;8.230;2023-06-22T05:51:42;101087.50;;;22.03;93.27
37610;BME280;23457;51.966;8.230;2023-06-22T05:54:09;101102.22;;;22.14;92.13
37610;BME280;23457;51.966;8.230;2023-06-22T05:56:36;101101.03;;;22.26;91.57
37610;BME280;23457;51.966;8.230;2023-06-22T05:59:04;101104.56;;;22.25;90.70
37610;BME280;23457;51.966;8.230;2023-06-22T06:01:30;101102.22;;;22.47;90.00
37610;BME280;23457;51.966;8.230;2023-06-22T06:04:03;101095.53;;;22.66;88.80
37610;BME280;23457;51.966;8.230;2023-06-22T06:06:30;101103.09;;;22.80;88.35
37610;BME280;23457;51.966;8.230;2023-06-22T06:08:57;101102.84;;;22.89;88.05
37610;BME280;23457;51.966;8.230;2023-06-22T06:11:25;101107.88;;;22.98;87.99
37610;BME280;23457;51.966;8.230;2023-06-22T06:13:52;101114.94;;;22.99;87.77
37610;BME280;23457;51.966;8.230;2023-06-22T06:16:19;101112.66;;;23.16;88.01
37610;BME280;23457;51.966;8.230;2023-06-22T06:18:45;101110.25;;;23.37;86.72
37610;BME280;23457;51.966;8.230;2023-06-22T06:21:12;101105.53;;;23.46;86.05
37610;BME280;23457;51.966;8.230;2023-06-22T06:23:38;101107.78;;;23.60;85.41
37610;BME280;23457;51.966;8.230;2023-06-22T06:26:05;101105.19;;;23.58;85.69
37610;BME280;23457;51.966;8.230;2023-06-22T06:28:34;101099.66;;;23.66;85.21
37610;BME280;23457;51.966;8.230;2023-06-22T06:31:01;101105.66;;;23.71;86.07
37610;BME280;23457;51.966;8.230;2023-06-22T06:33:27;101104.13;;;23.64;83.79
37610;BME280;23457;51.966;8.230;2023-06-22T06:35:54;101101.94;;;23.49;83.58
37610;BME280;23457;51.966;8.230;2023-06-22T06:38:22;101101.19;;;23.44;84.99
37610;BME280;23457;51.966;8.230;2023-06-22T06:40:48;101105.78;;;23.68;84.78
37610;BME280;23457;51.966;8.230;2023-06-22T06:43:15;101106.34;;;23.78;84.53
37610;BME280;23457;51.966;8.230;2023-06-22T06:45:42;101116.00;;;23.80;83.85
37610;BME280;23457;51.966;8.230;2023-06-22T06:48:08;101110.31;;;23.92;83.26
37610;BME280;23457;51.966;8.230;2023-06-22T06:50:36;101117.34;;;23.93;83.22
37610;BME280;23457;51.966;8.230;2023-06-22T06:53:02;101113.56;;;24.01;83.76
37610;BME280;23457;51.966;8.230;2023-06-22T06:55:29;101117.72;;;24.08;82.62
37610;BME280;23457;51.966;8.230;2023-06-22T06:57:59;101121.03;;;24.16;82.82
37610;BME280;23457;51.966;8.230;2023-06-22T07:00:26;101111.22;;;24.18;85.21
37610;BME280;23457;51.966;8.230;2023-06-22T07:02:53;101116.34;;;24.24;83.46
37610;BME280;23457;51.966;8.230;2023-06-22T07:05:20;101113.44;;;24.32;82.55
37610;BME280;23457;51.966;8.230;2023-06-22T07:07:47;101113.22;;;24.38;82.12
37610;BME280;23457;51.966;8.230;2023-06-22T07:10:14;101114.94;;;24.39;81.38
37610;BME280;23457;51.966;8.230;2023-06-22T07:12:41;101104.38;;;24.37;82.78
37610;BME280;23457;51.966;8.230;2023-06-22T07:15:09;101104.91;;;24.47;83.00
37610;BME280;23457;51.966;8.230;2023-06-22T07:17:37;101114.66;;;24.46;82.31
37610;BME280;23457;51.966;8.230;2023-06-22T07:20:04;101114.66;;;24.46;81.90
37610;BME280;23457;51.966;8.230;2023-06-22T07:22:42;101108.22;;;24.53;83.20
37610;BME280;23457;51.966;8.230;2023-06-22T07:25:10;101106.59;;;24.49;84.49
37610;BME280;23457;51.966;8.230;2023-06-22T07:27:46;101113.09;;;24.41;84.03
37610;BME280;23457;51.966;8.230;2023-06-22T07:30:13;101099.88;;;24.39;83.17
37610;BME280;23457;51.966;8.230;2023-06-22T07:32:40;101102.31;;;24.45;83.28
37610;BME280;23457;51.966;8.230;2023-06-22T07:35:07;101106.69;;;24.46;84.62
37610;BME280;23457;51.966;8.230;2023-06-22T07:37:34;101109.63;;;24.39;84.65
37610;BME280;23457;51.966;8.230;2023-06-22T07:40:02;101105.09;;;24.42;85.83
37610;BME280;23457;51.966;8.230;2023-06-22T07:42:32;101097.81;;;24.21;86.15
37610;BME280;23457;51.966;8.230;2023-06-22T07:45:03;101091.19;;;24.34;85.84
37610;BME280;23457;51.966;8.230;2023-06-22T07:47:30;101101.38;;;24.46;84.70
37610;BME280;23457;51.966;8.230;2023-06-22T07:49:58;101102.25;;;24.47;86.77
37610;BME280;23457;51.966;8.230;2023-06-22T07:52:28;101095.53;;;24.61;85.61
37610;BME280;23457;51.966;8.230;2023-06-22T07:54:55;101096.31;;;24.40;86.57
37610;BME280;23457;51.966;8.230;2023-06-22T07:57:21;101096.50;;;24.59;85.45
37610;BME280;23457;51.966;8.230;2023-06-22T07:59:48;101085.00;;;24.58;84.19
37610;BME280;23457;51.966;8.230;2023-06-22T08:02:15;101084.69;;;24.68;85.46
37610;BME280;23457;51.966;8.230;2023-06-22T08:04:42;101086.13;;;24.76;83.50
37610;BME280;23457;51.966;8.230;2023-06-22T08:07:08;101082.72;;;24.73;82.80
37610;BME280;23457;51.966;8.230;2023-06-22T08:09:36;101082.50;;;24.79;83.32
37610;BME280;23457;51.966;8.230;2023-06-22T08:12:03;101079.84;;;24.79;84.11
37610;BME280;23457;51.966;8.230;2023-06-22T08:14:30;101076.28;;;25.03;83.34
37610;BME280;23457;51.966;8.230;2023-06-22T08:16:57;101076.44;;;25.22;86.20
37610;BME280;23457;51.966;8.230;2023-06-22T08:19:24;101076.97;;;25.31;84.66
37610;BME280;23457;51.966;8.230;2023-06-22T08:21:51;101073.91;;;25.64;83.16
37610;BME280;23457;51.966;8.230;2023-06-22T08:24:18;101071.66;;;25.31;81.20
37610;BME280;23457;51.966;8.230;2023-06-22T08:26:45;101059.72;;;25.42;80.16
37610;BME280;23457;51.966;8.230;2023-06-22T08:29:12;101058.78;;;25.43;80.66
37610;BME280;23457;51.966;8.230;2023-06-22T08:31:38;101049.72;;;25.47;81.23
37610;BME280;23457;51.966;8.230;2023-06-22T08:34:05;101057.00;;;25.65;80.33
37610;BME280;23457;51.966;8.230;2023-06-22T08:36:32;101047.19;;;25.67;82.30
37610;BME280;23457;51.966;8.230;2023-06-22T08:39:04;101055.88;;;26.13;79.11
37610;BME280;23457;51.966;8.230;2023-06-22T08:41:30;101052.69;;;26.25;77.73
37610;BME280;23457;51.966;8.230;2023-06-22T08:43:57;101043.69;;;26.27;77.47
37610;BME280;23457;51.966;8.230;2023-06-22T08:46:24;101052.16;;;26.17;77.83
37610;BME280;23457;51.966;8.230;2023-06-22T08:48:57;101039.16;;;26.31;75.89
37610;BME280;23457;51.966;8.230;2023-06-22T08:51:24;101025.06;;;26.27;75.25
37610;BME280;23457;51.966;8.230;2023-06-22T08:53:51;101030.38;;;26.07;75.62
37610;BME280;23457;51.966;8.230;2023-06-22T08:56:17;101022.47;;;26.46;73.55
37610;BME280;23457;51.966;8.230;2023-06-22T08:58:45;101028.13;;;26.38;72.47
37610;BME280;23457;51.966;8.230;2023-06-22T09:01:11;101023.06;;;26.53;74.11
37610;BME280;23457;51.966;8.230;2023-06-22T09:03:38;101029.25;;;26.53;74.05
37610;BME280;23457;51.966;8.230;2023-06-22T09:06:05;101015.78;;;26.75;73.98
37610;BME280;23457;51.966;8.230;2023-06-22T09:08:32;101012.72;;;26.84;72.93
37610;BME280;23457;51.966;8.230;2023-06-22T09:10:58;101001.19;;;26.84;71.39
37610;BME280;23457;51.966;8.230;2023-06-22T09:13:25;101005.19;;;26.73;70.04
37610;BME280;23457;51.966;8.230;2023-06-22T09:15:52;100996.59;;;27.06;68.25
37610;BME280;23457;51.966;8.230;2023-06-22T09:18:19;100985.28;;;27.01;69.21
37610;BME280;23457;51.966;8.230;2023-06-22T09:20:46;100998.47;;;27.23;69.46
37610;BME280;23457;51.966;8.230;2023-06-22T09:23:13;100989.94;;;27.51;69.08
37610;BME280;23457;51.966;8.230;2023-06-22T09:25:41;100991.59;;;27.72;71.23
37610;BME280;23457;51.966;8.230;2023-06-22T09:28:08;100995.19;;;27.71;65.55
37610;BME280;23457;51.966;8.230;2023-06-22T09:30:34;100999.66;;;27.34;64.92
37610;BME280;23457;51.966;8.230;2023-06-22T09:33:01;100998.56;;;27.57;65.72
37610;BME280;23457;51.966;8.230;2023-06-22T09:35:28;100982.38;;;27.60;68.68
37610;BME280;23457;51.966;8.230;2023-06-22T09:37:55;100988.59;;;27.95;62.75
37610;BME280;23457;51.966;8.230;2023-06-22T09:40:22;100980.72;;;28.09;63.31
37610;BME280;23457;51.966;8.230;2023-06-22T09:42:48;100971.91;;;28.07;65.74
37610;BME280;23457;51.966;8.230;2023-06-22T09:45:18;100968.66;;;28.68;70.44
37610;BME280;23457;51.966;8.230;2023-06-22T09:47:44;100975.38;;;28.75;60.52
37610;BME280;23457;51.966;8.230;2023-06-22T09:50:11;100985.03;;;28.62;60.11
37610;BME280;23457;51.966;8.230;2023-06-22T09:52:38;100968.81;;;28.65;60.33
37610;BME280;23457;51.966;8.230;2023-06-22T09:55:08;100966.69;;;28.39;58.38
37610;BME280;23457;51.966;8.230;2023-06-22T09:57:35;100961.19;;;28.42;60.46
37610;BME280;23457;51.966;8.230;2023-06-22T10:00:01;100967.44;;;28.58;64.19
37610;BME280;23457;51.966;8.230;2023-06-22T10:02:32;100970.81;;;28.29;61.78
37610;BME280;23457;51.966;8.230;2023-06-22T10:04:59;100961.81;;;28.47;66.28
37610;BME280;23457;51.966;8.230;2023-06-22T10:07:26;100966.59;;;28.73;63.91
37610;BME280;23457;51.966;8.230;2023-06-22T10:09:52;100976.56;;;28.54;61.25
37610;BME280;23457;51.966;8.230;2023-06-22T10:12:19;100969.94;;;28.61;63.22
37610;BME280;23457;51.966;8.230;2023-06-22T10:14:46;100968.53;;;28.54;62.94
37610;BME280;23457;51.966;8.230;2023-06-22T10:17:12;100968.31;;;28.74;62.59
37610;BME280;23457;51.966;8.230;2023-06-22T10:19:39;100968.72;;;28.67;62.15
37610;BME280;23457;51.966;8.230;2023-06-22T10:22:08;100971.44;;;28.34;63.58
37610;BME280;23457;51.966;8.230;2023-06-22T10:24:34;100976.28;;;28.43;64.98
37610;BME280;23457;51.966;8.230;2023-06-22T10:27:01;100969.03;;;28.45;66.61
37610;BME280;23457;51.966;8.230;2023-06-22T10:29:28;100963.88;;;28.25;65.14
37610;BME280;23457;51.966;8.230;2023-06-22T10:31:54;100959.69;;;28.69;64.91
37610;BME280;23457;51.966;8.230;2023-06-22T10:34:21;100962.66;;;28.96;67.67
37610;BME280;23457;51.966;8.230;2023-06-22T10:36:48;100943.47;;;29.19;66.14
37610;BME280;23457;51.966;8.230;2023-06-22T10:39:15;100942.47;;;29.52;63.70
37610;BME280;23457;51.966;8.230;2023-06-22T10:41:42;100944.47;;;29.78;57.85
37610;BME280;23457;51.966;8.230;2023-06-22T10:44:08;100936.72;;;29.28;58.77
37610;BME280;23457;51.966;8.230;2023-06-22T10:46:35;100940.03;;;29.02;59.35
37610;BME280;23457;51.966;8.230;2023-06-22T10:49:02;100927.06;;;29.26;59.56
37610;BME280;23457;51.966;8.230;2023-06-22T10:51:29;100924.91;;;28.69;60.92
37610;BME280;23457;51.966;8.230;2023-06-22T10:53:55;100915.69;;;28.59;60.29
37610;BME280;23457;51.966;8.230;2023-06-22T10:56:22;100914.81;;;28.59;63.27
37610;BME280;23457;51.966;8.230;2023-06-22T10:58:49;100911.19;;;28.75;61.54
37610;BME280;23457;51.966;8.230;2023-06-22T11:01:16;100908.06;;;29.14;63.50
37610;BME280;23457;51.966;8.230;2023-06-22T11:04:01;100906.88;;;29.04;57.70
37610;BME280;23457;51.966;8.230;2023-06-22T11:06:28;100909.31;;;29.09;60.60
37610;BME280;23457;51.966;8.230;2023-06-22T11:08:54;100911.13;;;28.93;58.82
37610;BME280;23457;51.966;8.230;2023-06-22T11:11:32;100910.50;;;29.03;59.87
37610;BME280;23457;51.966;8.230;2023-06-22T11:13:59;100903.19;;;28.91;65.20
37610;BME280;23457;51.966;8.230;2023-06-22T11:16:26;100914.56;;;29.10;58.62
37610;BME280;23457;51.966;8.230;2023-06-22T11:18:52;100887.88;;;29.25;57.41
37610;BME280;23457;51.966;8.230;2023-06-22T11:21:19;100898.63;;;28.93;57.68
37610;BME280;23457;51.966;8.230;2023-06-22T11:23:46;100891.59;;;29.06;57.50
37610;BME280;23457;51.966;8.230;2023-06-22T11:26:14;100878.91;;;29.10;56.40
37610;BME280;23457;51.966;8.230;2023-06-22T11:28:43;100883.81;;;28.88;58.86
37610;BME280;23457;51.966;8.230;2023-06-22T11:31:10;100877.53;;;29.03;60.07
37610;BME280;23457;51.966;8.230;2023-06-22T11:33:52;100873.50;;;28.96;61.71
37610;BME280;23457;51.966;8.230;2023-06-22T11:36:19;100863.94;;;28.60;59.11
37610;BME280;23457;51.966;8.230;2023-06-22T11:38:46;100870.56;;;28.53;59.43
37610;BME280;23457;51.966;8.230;2023-06-22T11:41:12;100862.28;;;28.58;59.48
37610;BME280;23457;51.966;8.230;2023-06-22T11:43:39;100858.38;;;28.63;60.68
37610;BME280;23457;51.966;8.230;2023-06-22T11:46:06;100859.41;;;28.76;59.89
37610;BME280;23457;51.966;8.230;2023-06-22T11:48:33;100854.94;;;28.77;61.30
37610;BME280;23457;51.966;8.230;2023-06-22T11:50:59;100844.41;;;28.90;61.65
37610;BME280;23457;51.966;8.230;2023-06-22T11:53:27;100833.03;;;28.70;63.79
37610;BME280;23457;51.966;8.230;2023-06-22T11:55:53;100844.25;;;28.93;63.54
37610;BME280;23457;51.966;8.230;2023-06-22T11:58:22;100838.78;;;29.10;65.27
37610;BME280;23457;51.966;8.230;2023-06-22T12:00:49;100845.47;;;28.56;65.01
37610;BME280;23457;51.966;8.230;2023-06-22T12:03:18;100837.44;;;28.71;64.46
37610;BME280;23457;51.966;8.230;2023-06-22T12:05:45;100848.22;;;28.70;63.96
37610;BME280;23457;51.966;8.230;2023-06-22T12:08:12;100852.63;;;28.71;66.74
37610;BME280;23457;51.966;8.230;2023-06-22T12:10:40;100864.59;;;28.64;65.41
37610;BME280;23457;51.966;8.230;2023-06-22T12:13:06;100869.44;;;28.73;64.16
37610;BME280;23457;51.966;8.230;2023-06-22T12:15:33;100879.72;;;28.49;65.54
37610;BME280;23457;51.966;8.230;2023-06-22T12:18:00;100880.28;;;28.38;64.76
37610;BME280;23457;51.966;8.230;2023-06-22T12:20:28;100884.19;;;28.33;65.09
37610;BME280;23457;51.966;8.230;2023-06-22T12:22:55;100890.47;;;27.99;67.20
37610;BME280;23457;51.966;8.230;2023-06-22T12:25:24;100912.16;;;28.26;68.77
37610;BME280;23457;51.966;8.230;2023-06-22T12:27:57;100896.13;;;28.26;77.10
37610;BME280;23457;51.966;8.230;2023-06-22T12:30:37;100896.22;;;27.74;77.54
37610;BME280;23457;51.966;8.230;2023-06-22T12:33:03;100907.34;;;27.30;81.96
37610;BME280;23457;51.966;8.230;2023-06-22T12:35:31;100907.56;;;27.08;88.62
37610;BME280;23457;51.966;8.230;2023-06-22T12:37:58;100901.38;;;27.08;85.86
37610;BME280;23457;51.966;8.230;2023-06-22T12:40:24;100902.53;;;26.84;89.27
37610;BME280;23457;51.966;8.230;2023-06-22T12:42:51;100897.59;;;26.57;89.04
37610;BME280;23457;51.966;8.230;2023-06-22T12:45:18;100883.53;;;25.96;92.00
37610;BME280;23457;51.966;8.230;2023-06-22T12:47:46;100891.59;;;25.94;93.78
37610;BME280;23457;51.966;8.230;2023-06-22T12:50:13;100880.63;;;25.60;94.30
37610;BME280;23457;51.966;8.230;2023-06-22T12:52:39;100873.59;;;25.59;98.04
37610;BME280;23457;51.966;8.230;2023-06-22T12:55:07;100865.59;;;25.59;100.00
37610;BME280;23457;51.966;8.230;2023-06-22T12:57:34;100857.69;;;25.37;100.00
37610;BME280;23457;51.966;8.230;2023-06-22T13:00:01;100843.75;;;25.10;100.00
37610;BME280;23457;51.966;8.230;2023-06-22T13:02:28;100854.78;;;24.79;100.00
37610;BME280;23457;51.966;8.230;2023-06-22T13:04:55;100863.56;;;24.81;100.00